Time;durP1;ratioP1;P1;durP2;ratioP2;P2;SDS_P1;SDS_P2;PMS_P1;PMS_P2;Temp;Humidity;BMP_temperature;BMP_pressure;BME280_temperature;BME280_humidity;BME280_pressure;Samples;Min_cycle;Max_cycle;Signal;HPM_P1;HPM_P2
2023/10/26 00:02:01;;;;;;;3.90;2.13;;;13.50;99.90;;;;;;4284152;27;20141;-66
2023/10/26 00:04:04;;;;;;;3.13;1.90;;;13.50;99.90;;;;;;4284502;27;20043;-66
2023/10/26 00:06:07;;;;;;;4.35;1.75;;;13.50;99.90;;;;;;4284518;27;20090;-66
2023/10/26 00:08:09;;;;;;;3.63;1.95;;;13.50;99.90;;;;;;4284247;27;20053;-66
2023/10/26 00:10:12;;;;;;;4.40;2.53;;;13.50;99.90;;;;;;4284250;27;20406;-67
2023/10/26 00:12:14;;;;;;;2.83;1.98;;;13.50;99.90;;;;;;4284313;27;20065;-69
2023/10/26 00:14:16;;;;;;;4.18;2.22;;;13.50;99.90;;;;;;4284672;27;20474;-65
2023/10/26 00:16:18;;;;;;;4.57;2.20;;;13.50;99.90;;;;;;4283874;27;20475;-67
2023/10/26 00:18:20;;;;;;;5.45;2.63;;;13.60;99.90;;;;;;4284069;27;20050;-66
2023/10/26 00:20:23;;;;;;;3.53;2.55;;;13.50;99.90;;;;;;4284405;27;20064;-64
2023/10/26 00:22:28;;;;;;;3.53;2.40;;;13.50;99.90;;;;;;4284144;27;20686;-66
2023/10/26 00:24:31;;;;;;;3.40;2.10;;;13.60;99.90;;;;;;4284105;27;20111;-66
2023/10/26 00:26:34;;;;;;;6.13;2.50;;;13.60;99.90;;;;;;4284294;27;20054;-67
2023/10/26 00:28:36;;;;;;;5.55;2.40;;;13.50;99.90;;;;;;4284202;27;20046;-67
2023/10/26 00:30:38;;;;;;;9.10;2.50;;;13.60;99.90;;;;;;4265408;27;20047;-67
2023/10/26 00:32:40;;;;;;;7.50;2.58;;;13.60;99.90;;;;;;4284031;27;20153;-67
2023/10/26 00:34:43;;;;;;;4.95;2.65;;;13.60;99.90;;;;;;4284261;27;20038;-67
2023/10/26 00:36:45;;;;;;;5.85;2.60;;;13.60;99.90;;;;;;4284003;27;20042;-67
2023/10/26 00:38:49;;;;;;;3.85;2.53;;;13.60;99.90;;;;;;4265523;27;20123;-67
2023/10/26 00:40:51;;;;;;;5.10;2.25;;;13.60;99.90;;;;;;4283815;27;20114;-67
2023/10/26 00:42:58;;;;;;;5.63;2.97;;;13.50;99.90;;;;;;4265344;27;20462;-70
2023/10/26 00:45:00;;;;;;;5.10;2.78;;;13.60;99.90;;;;;;4283736;27;20393;-66
2023/10/26 00:47:03;;;;;;;8.60;2.28;;;13.50;99.90;;;;;;4283773;27;20046;-66
2023/10/26 00:49:07;;;;;;;6.47;2.53;;;13.50;99.90;;;;;;4283868;27;20073;-66
2023/10/26 00:51:09;;;;;;;5.47;2.88;;;13.50;99.90;;;;;;4283779;27;20098;-67
2023/10/26 00:53:12;;;;;;;5.07;2.22;;;13.50;99.90;;;;;;4283480;27;20054;-68
2023/10/26 00:55:16;;;;;;;3.28;2.17;;;13.40;99.90;;;;;;4283682;27;20050;-66
2023/10/26 00:57:22;;;;;;;3.38;2.40;;;13.50;99.90;;;;;;4283425;27;20483;-67
2023/10/26 00:59:29;;;;;;;4.18;2.78;;;13.50;99.90;;;;;;4264624;27;20592;-67
2023/10/26 01:01:31;;;;;;;8.85;3.05;;;13.50;99.90;;;;;;4283652;27;20093;-67
2023/10/26 01:03:36;;;;;;;4.38;2.40;;;13.50;99.90;;;;;;4283603;27;20050;-65
2023/10/26 01:05:38;;;;;;;5.50;2.77;;;13.60;99.90;;;;;;4283659;27;20050;-70
2023/10/26 01:07:40;;;;;;;5.38;2.60;;;13.50;99.90;;;;;;4264855;27;20525;-67
2023/10/26 01:09:42;;;;;;;4.32;2.65;;;13.40;99.90;;;;;;4283483;27;20376;-67
2023/10/26 01:11:46;;;;;;;6.20;2.72;;;13.40;99.90;;;;;;4283318;27;20061;-67
2023/10/26 01:13:49;;;;;;;7.13;2.45;;;13.40;99.90;;;;;;4283301;27;20046;-67
2023/10/26 01:15:54;;;;;;;4.90;2.20;;;13.40;99.90;;;;;;4283594;27;20042;-67
2023/10/26 01:17:57;;;;;;;5.10;2.95;;;13.30;99.90;;;;;;4283554;27;20391;-66
2023/10/26 01:19:59;;;;;;;4.72;2.67;;;13.30;99.90;;;;;;4283467;27;20160;-66
2023/10/26 01:22:02;;;;;;;5.93;3.17;;;13.20;99.90;;;;;;4283342;27;20046;-66
2023/10/26 01:24:05;;;;;;;8.32;2.88;;;13.30;99.90;;;;;;4283150;27;20042;-65
2023/10/26 01:26:07;;;;;;;5.80;3.00;;;13.20;99.90;;;;;;4283300;27;20073;-66
2023/10/26 01:28:12;;;;;;;4.30;2.92;;;13.20;99.90;;;;;;4282820;27;20396;-66
2023/10/26 01:30:16;;;;;;;4.90;2.72;;;13.20;99.90;;;;;;4283102;27;20076;-66
2023/10/26 01:32:20;;;;;;;5.30;3.03;;;13.20;99.90;;;;;;4283101;27;20065;-65
2023/10/26 01:34:22;;;;;;;5.25;3.08;;;13.30;99.90;;;;;;4283120;27;20452;-66
2023/10/26 01:36:25;;;;;;;5.40;2.67;;;13.30;99.90;;;;;;4282820;27;20042;-66
2023/10/26 01:38:28;;;;;;;6.07;2.55;;;13.20;99.90;;;;;;4282975;27;20130;-67
2023/10/26 01:40:31;;;;;;;6.25;3.20;;;13.10;99.90;;;;;;4264627;27;20042;-65
2023/10/26 01:42:33;;;;;;;5.25;3.42;;;13.10;99.90;;;;;;4282295;27;20080;-66
2023/10/26 01:44:36;;;;;;;8.30;3.33;;;13.10;99.90;;;;;;4282708;27;20072;-66
2023/10/26 01:46:39;;;;;;;4.93;3.13;;;13.10;99.90;;;;;;4282679;27;20050;-65
2023/10/26 01:48:41;;;;;;;6.63;3.22;;;13.10;99.90;;;;;;4282665;27;20117;-65
2023/10/26 01:50:43;;;;;;;5.40;3.55;;;13.10;99.90;;;;;;4282633;27;20555;-65
2023/10/26 01:52:45;;;;;;;6.30;3.35;;;13.00;99.90;;;;;;4282519;27;20064;-66
2023/10/26 01:54:49;;;;;;;3.67;3.13;;;12.90;99.90;;;;;;4264150;27;20107;-65
2023/10/26 01:56:51;;;;;;;6.10;3.20;;;13.00;99.90;;;;;;4282228;27;20046;-65
2023/10/26 01:58:53;;;;;;;5.28;2.97;;;12.90;99.90;;;;;;4282818;27;20501;-66
2023/10/26 02:00:56;;;;;;;6.30;3.33;;;12.90;99.90;;;;;;4282711;27;20407;-65
2023/10/26 02:02:58;;;;;;;4.82;3.08;;;13.00;99.90;;;;;;4264130;27;20093;-65
2023/10/26 02:05:00;;;;;;;5.03;3.28;;;13.00;99.90;;;;;;4282436;27;20050;-69
2023/10/26 02:07:03;;;;;;;6.50;2.80;;;13.00;99.90;;;;;;4282588;27;20063;-64
2023/10/26 02:09:06;;;;;;;7.05;3.45;;;13.00;99.90;;;;;;4282466;27;20052;-65
2023/10/26 02:11:09;;;;;;;4.43;3.05;;;13.00;99.90;;;;;;4282253;27;20046;-64
2023/10/26 02:13:11;;;;;;;3.70;2.85;;;13.00;99.90;;;;;;4282165;27;20077;-65
2023/10/26 02:15:13;;;;;;;5.88;3.42;;;13.00;99.90;;;;;;4282259;27;20518;-65
2023/10/26 02:17:15;;;;;;;5.75;2.90;;;13.00;99.90;;;;;;4263638;27;20062;-63
2023/10/26 02:19:18;;;;;;;4.05;2.70;;;13.00;99.90;;;;;;4282595;27;20069;-65
2023/10/26 02:21:20;;;;;;;4.85;2.75;;;12.90;99.90;;;;;;4282237;27;20046;-65
2023/10/26 02:23:22;;;;;;;3.47;2.70;;;13.00;99.90;;;;;;4263808;27;20154;-65
2023/10/26 02:25:25;;;;;;;5.80;3.25;;;13.00;99.90;;;;;;4282434;27;20077;-65
2023/10/26 02:27:29;;;;;;;3.42;2.70;;;12.90;99.90;;;;;;4281758;27;20047;-64
2023/10/26 02:29:31;;;;;;;4.80;2.67;;;13.00;99.90;;;;;;4281961;27;20048;-65
2023/10/26 02:31:33;;;;;;;4.57;2.63;;;13.00;99.90;;;;;;4282221;27;20038;-65
2023/10/26 02:33:35;;;;;;;3.33;2.25;;;13.00;99.90;;;;;;4282066;27;20042;-66
2023/10/26 02:35:39;;;;;;;4.28;2.60;;;13.00;99.90;;;;;;4282192;27;20469;-65
2023/10/26 02:37:41;;;;;;;3.65;2.13;;;13.00;99.90;;;;;;4282225;27;20145;-64
2023/10/26 02:39:43;;;;;;;3.80;2.67;;;13.10;99.90;;;;;;4282211;27;20460;-64
2023/10/26 02:41:45;;;;;;;4.15;2.65;;;13.00;99.90;;;;;;4281582;27;20137;-64
2023/10/26 02:43:49;;;;;;;5.30;2.15;;;13.00;99.90;;;;;;4263724;27;20148;-66
2023/10/26 02:46:00;;;;;;;4.20;2.65;;;13.00;99.90;;;;;;4263418;27;20046;-65
2023/10/26 02:48:05;;;;;;;4.30;1.75;;;13.00;99.90;;;;;;4282086;27;20164;-65
2023/10/26 02:50:09;;;;;;;2.22;1.90;;;13.00;99.90;;;;;;4281763;27;20074;-64
2023/10/26 02:52:11;;;;;;;2.90;1.90;;;13.10;99.90;;;;;;4281692;27;20176;-65
2023/10/26 02:54:14;;;;;;;2.38;2.10;;;13.10;99.90;;;;;;4282041;27;20533;-65
2023/10/26 02:56:16;;;;;;;2.25;2.05;;;13.00;99.90;;;;;;4281834;27;20117;-66
2023/10/26 02:58:18;;;;;;;5.75;2.53;;;13.10;99.90;;;;;;4281320;27;20117;-65
2023/10/26 03:00:22;;;;;;;2.65;2.33;;;13.10;99.90;;;;;;4281410;27;20239;-65
2023/10/26 03:02:24;;;;;;;6.10;2.17;;;13.00;99.90;;;;;;4281523;27;20090;-65
2023/10/26 03:04:26;;;;;;;3.97;2.20;;;13.00;99.90;;;;;;4281990;27;20056;-65
2023/10/26 03:06:28;;;;;;;3.53;1.92;;;13.00;99.90;;;;;;4263315;27;20385;-65
2023/10/26 03:08:30;;;;;;;5.63;2.00;;;13.10;99.90;;;;;;4281625;27;20094;-65
2023/10/26 03:10:33;;;;;;;3.33;1.95;;;13.10;99.90;;;;;;4281634;27;20050;-65
2023/10/26 03:12:35;;;;;;;2.63;2.08;;;13.10;99.90;;;;;;4281792;27;20447;-64
2023/10/26 03:14:37;;;;;;;3.13;1.85;;;13.10;99.90;;;;;;4281782;27;20085;-65
2023/10/26 03:16:41;;;;;;;3.85;2.00;;;13.10;99.90;;;;;;4281904;27;20448;-65
2023/10/26 03:18:43;;;;;;;3.35;2.60;;;13.20;99.90;;;;;;4281621;27;20050;-65
2023/10/26 03:20:45;;;;;;;2.10;1.90;;;13.20;99.90;;;;;;4263507;27;20042;-65
2023/10/26 03:22:47;;;;;;;2.92;2.30;;;13.20;99.90;;;;;;4281598;27;20062;-65
2023/10/26 03:24:50;;;;;;;3.10;1.77;;;13.20;99.90;;;;;;4262592;27;20471;-66
2023/10/26 03:26:52;;;;;;;2.15;1.80;;;13.20;99.90;;;;;;4281514;27;20046;-65
2023/10/26 03:28:54;;;;;;;2.03;1.60;;;13.20;99.90;;;;;;4281582;27;20056;-65
2023/10/26 03:30:57;;;;;;;2.25;1.63;;;13.20;99.90;;;;;;4281389;27;20088;-64
2023/10/26 03:33:00;;;;;;;3.05;1.40;;;13.10;99.90;;;;;;4262861;27;20093;-65
2023/10/26 03:35:03;;;;;;;3.00;1.80;;;13.20;99.90;;;;;;4281634;27;20085;-65
2023/10/26 03:37:08;;;;;;;1.95;1.60;;;13.20;99.90;;;;;;4281513;27;20200;-65
2023/10/26 03:39:10;;;;;;;2.45;1.55;;;13.20;99.90;;;;;;4281260;27;20087;-64
2023/10/26 03:41:13;;;;;;;3.28;1.80;;;13.20;99.90;;;;;;4281165;27;20135;-65
2023/10/26 03:43:15;;;;;;;2.35;2.03;;;13.30;99.90;;;;;;4281353;27;20497;-65
2023/10/26 03:45:17;;;;;;;2.20;1.67;;;13.30;99.90;;;;;;4263154;27;20042;-65
2023/10/26 03:47:19;;;;;;;2.97;1.95;;;13.30;99.90;;;;;;4281360;27;20126;-65
2023/10/26 03:49:23;;;;;;;2.00;1.80;;;13.30;99.90;;;;;;4281365;27;20052;-64
2023/10/26 03:51:25;;;;;;;2.30;2.10;;;13.30;99.90;;;;;;4281395;27;20038;-64
2023/10/26 03:53:28;;;;;;;2.30;2.10;;;13.30;99.90;;;;;;4280972;27;20042;-65
2023/10/26 03:55:30;;;;;;;2.35;2.17;;;13.40;99.90;;;;;;4281140;27;20053;-64
2023/10/26 03:57:33;;;;;;;3.15;2.83;;;13.40;99.90;;;;;;4281416;27;20087;-65
2023/10/26 03:59:35;;;;;;;3.45;2.65;;;13.40;99.90;;;;;;4280951;27;20479;-65
2023/10/26 04:01:37;;;;;;;2.92;2.72;;;13.40;99.90;;;;;;4281340;27;20046;-65
2023/10/26 04:03:40;;;;;;;4.45;3.90;;;13.30;99.90;;;;;;4262679;27;20050;-65
2023/10/26 04:05:44;;;;;;;5.82;2.70;;;13.30;99.90;;;;;;4281358;27;20073;-65
2023/10/26 04:07:46;;;;;;;4.68;3.63;;;13.40;99.90;;;;;;4262502;27;20051;-65
2023/10/26 04:09:48;;;;;;;3.47;3.17;;;13.40;99.90;;;;;;4281617;27;20046;-65
2023/10/26 04:11:50;;;;;;;2.80;2.60;;;13.40;99.90;;;;;;4284350;27;20046;-64
2023/10/26 04:13:54;;;;;;;3.13;2.90;;;13.40;99.90;;;;;;4284305;27;20046;-65
2023/10/26 04:15:59;;;;;;;3.47;3.17;;;13.40;99.90;;;;;;4284653;27;20452;-65
2023/10/26 04:18:02;;;;;;;;;;;13.40;99.90;;;;;;4285052;27;20041;-66
2023/10/26 04:20:07;;;;;;;2.60;2.40;;;13.40;99.90;;;;;;4284545;27;20022;-65
2023/10/26 04:22:11;;;;;;;3.28;2.97;;;13.40;99.90;;;;;;4284085;27;20062;-66
2023/10/26 04:24:13;;;;;;;3.60;2.85;;;13.40;99.90;;;;;;4284282;27;20504;-65
2023/10/26 04:26:15;;;;;;;2.50;2.05;;;13.40;99.90;;;;;;4284396;27;20050;-67
2023/10/26 04:28:18;;;;;;;2.22;2.03;;;13.40;99.90;;;;;;4284436;27;20046;-64
2023/10/26 04:30:20;;;;;;;3.03;2.72;;;13.40;99.90;;;;;;4284335;27;20046;-64
2023/10/26 04:32:22;;;;;;;2.10;1.88;;;13.50;99.90;;;;;;4284110;27;20117;-64
2023/10/26 04:34:24;;;;;;;3.78;2.47;;;13.50;99.90;;;;;;4284184;27;20052;-64
2023/10/26 04:36:26;;;;;;;2.42;2.22;;;13.40;99.90;;;;;;4283837;27;20065;-65
2023/10/26 04:38:30;;;;;;;2.20;2.00;;;13.50;99.90;;;;;;4265354;27;20568;-65
2023/10/26 04:40:32;;;;;;;3.65;1.90;;;13.50;99.90;;;;;;4284187;27;20092;-65
2023/10/26 04:42:34;;;;;;;2.20;1.90;;;13.40;99.90;;;;;;4265194;27;20089;-64
2023/10/26 04:44:37;;;;;;;2.97;1.90;;;13.50;99.90;;;;;;4284109;27;20121;-64
2023/10/26 04:46:39;;;;;;;4.28;2.45;;;13.50;99.90;;;;;;4283825;27;20046;-64
2023/10/26 04:48:41;;;;;;;2.35;1.95;;;13.50;99.90;;;;;;4283882;27;20046;-64
2023/10/26 04:50:44;;;;;;;4.72;2.10;;;13.50;99.90;;;;;;4283698;27;20467;-65
2023/10/26 04:52:47;;;;;;;2.28;2.00;;;13.50;99.90;;;;;;4283432;27;20050;-64
2023/10/26 04:54:51;;;;;;;2.65;1.60;;;13.50;99.90;;;;;;4283632;27;20067;-64
2023/10/26 04:56:53;;;;;;;1.63;1.50;;;13.50;99.90;;;;;;4283853;27;20092;-64
2023/10/26 04:58:55;;;;;;;2.42;1.92;;;13.50;99.90;;;;;;4283754;27;20050;-64
2023/10/26 05:00:59;;;;;;;2.10;1.98;;;13.50;99.90;;;;;;4283838;27;20054;-65
2023/10/26 05:03:02;;;;;;;2.40;2.20;;;13.50;99.90;;;;;;4283572;27;20433;-64
2023/10/26 05:05:07;;;;;;;3.13;2.17;;;13.50;99.90;;;;;;4283419;27;20052;-65
2023/10/26 05:07:09;;;;;;;3.80;2.00;;;13.50;99.90;;;;;;4283519;27;20091;-65
2023/10/26 05:09:11;;;;;;;3.22;2.47;;;13.50;99.90;;;;;;4283557;27;20393;-65
2023/10/26 05:11:14;;;;;;;3.25;2.67;;;13.50;99.90;;;;;;4265084;27;20097;-65
2023/10/26 05:13:17;;;;;;;2.17;1.83;;;13.60;99.90;;;;;;4283506;27;20125;-64
2023/10/26 05:15:19;;;;;;;3.70;1.90;;;13.60;99.90;;;;;;4283487;27;20502;-64
2023/10/26 05:17:22;;;;;;;2.00;1.80;;;13.50;99.90;;;;;;4283378;27;20128;-65
2023/10/26 05:19:24;;;;;;;2.50;2.13;;;13.60;99.90;;;;;;4283538;27;20042;-65
2023/10/26 05:21:28;;;;;;;1.98;1.88;;;13.60;99.90;;;;;;4263928;27;20057;-64
2023/10/26 05:23:30;;;;;;;2.25;2.05;;;13.60;99.90;;;;;;4283083;27;20090;-65
2023/10/26 05:25:35;;;;;;;3.10;1.80;;;13.60;99.90;;;;;;4283430;27;20046;-64
2023/10/26 05:27:38;;;;;;;2.85;1.90;;;13.70;99.90;;;;;;4283216;27;20094;-65
2023/10/26 05:29:41;;;;;;;2.00;1.80;;;13.70;99.90;;;;;;4283280;27;20052;-65
2023/10/26 05:31:58;;;;;;;2.22;2.00;;;13.70;99.90;;;;;;4281834;27;20042;-64
2023/10/26 05:34:20;;;;;;;3.10;2.60;;;13.70;99.90;;;;;;4282327;27;20122;-65
2023/10/26 05:36:22;;;;;;;3.05;2.30;;;13.70;99.90;;;;;;4282869;27;20117;-65
2023/10/26 05:38:24;;;;;;;3.20;2.22;;;13.70;99.90;;;;;;4283202;27;20042;-65
2023/10/26 05:40:27;;;;;;;2.67;2.45;;;13.80;99.90;;;;;;4282856;27;20068;-65
2023/10/26 05:42:29;;;;;;;2.40;2.10;;;13.70;99.90;;;;;;4282798;27;20058;-64
2023/10/26 05:44:32;;;;;;;2.55;2.35;;;13.70;99.90;;;;;;4282728;27;20039;-64
2023/10/26 05:46:35;;;;;;;2.53;2.33;;;13.80;99.90;;;;;;4282863;27;20085;-65
2023/10/26 05:48:37;;;;;;;3.00;2.70;;;13.80;99.90;;;;;;4282766;27;20096;-64
2023/10/26 05:50:43;;;;;;;2.95;2.20;;;13.80;99.90;;;;;;4282566;27;20436;-65
2023/10/26 05:52:45;;;;;;;2.42;2.22;;;13.80;99.90;;;;;;4282894;27;20465;-65
2023/10/26 05:54:47;;;;;;;3.22;2.35;;;13.80;99.90;;;;;;4282780;27;20077;-65
2023/10/26 05:56:49;;;;;;;4.32;2.70;;;13.80;99.90;;;;;;4282956;27;20054;-65
2023/10/26 05:58:51;;;;;;;3.67;2.50;;;13.90;99.90;;;;;;4283041;27;20125;-65
2023/10/26 06:00:55;;;;;;;5.28;2.35;;;13.90;99.90;;;;;;4282773;27;20522;-65
2023/10/26 06:02:58;;;;;;;2.10;1.90;;;13.90;99.90;;;;;;4282915;27;20108;-66
2023/10/26 06:05:00;;;;;;;1.95;1.75;;;13.90;99.90;;;;;;4282374;27;20046;-64
2023/10/26 06:07:03;;;;;;;3.42;1.70;;;13.90;99.90;;;;;;4282791;27;20042;-65
2023/10/26 06:09:05;;;;;;;3.35;1.50;;;13.90;99.90;;;;;;4264138;27;20046;-65
2023/10/26 06:11:07;;;;;;;2.00;1.33;;;14.00;99.90;;;;;;4282643;27;20047;-65
2023/10/26 06:13:09;;;;;;;1.95;1.52;;;14.00;99.90;;;;;;4264050;27;20052;-65
2023/10/26 06:15:11;;;;;;;2.83;1.15;;;14.00;99.90;;;;;;4282410;27;20098;-64
2023/10/26 06:17:15;;;;;;;1.60;0.90;;;14.00;99.90;;;;;;4263914;27;20057;-65
2023/10/26 06:19:17;;;;;;;5.07;1.02;;;14.00;99.90;;;;;;4263586;27;20117;-64
2023/10/26 06:21:21;;;;;;;1.85;0.80;;;14.00;99.90;;;;;;4282408;27;20399;-65
2023/10/26 06:23:23;;;;;;;5.25;1.05;;;14.00;99.90;;;;;;4282321;27;20052;-64
2023/10/26 06:25:25;;;;;;;4.65;1.58;;;14.00;99.90;;;;;;4282610;27;20070;-65
2023/10/26 06:27:28;;;;;;;4.95;1.40;;;14.00;99.90;;;;;;4282337;27;20493;-65
2023/10/26 06:29:30;;;;;;;4.78;1.45;;;14.00;99.90;;;;;;4282009;27;20121;-65
2023/10/26 06:31:32;;;;;;;12.45;2.15;;;14.10;99.90;;;;;;4282236;27;20042;-65
2023/10/26 06:33:35;;;;;;;5.03;1.40;;;14.10;99.90;;;;;;4263233;27;20042;-64
2023/10/26 06:35:38;;;;;;;8.07;2.03;;;14.00;99.90;;;;;;4281962;27;20070;-64
2023/10/26 06:37:40;;;;;;;14.05;2.33;;;14.10;99.90;;;;;;4281987;27;20042;-65
2023/10/26 06:39:42;;;;;;;9.35;2.72;;;14.00;99.90;;;;;;4282179;27;20047;-65
2023/10/26 06:41:44;;;;;;;13.40;3.55;;;14.00;99.90;;;;;;4281732;27;20051;-65
2023/10/26 06:43:46;;;;;;;14.15;3.40;;;14.00;99.90;;;;;;4281952;27;20498;-65
2023/10/26 06:45:48;;;;;;;13.10;2.42;;;13.90;99.90;;;;;;4282078;27;20060;-64
2023/10/26 06:47:50;;;;;;;11.65;2.58;;;13.90;99.90;;;;;;4280525;27;20038;-64
2023/10/26 06:49:53;;;;;;;15.52;3.05;;;13.90;99.90;;;;;;4282029;27;20428;-64
2023/10/26 06:51:55;;;;;;;11.38;2.25;;;13.90;99.90;;;;;;4281815;27;20150;-65
2023/10/26 06:53:58;;;;;;;11.57;2.45;;;14.00;99.90;;;;;;4281909;27;20038;-64
2023/10/26 06:56:00;;;;;;;22.98;3.80;;;13.90;99.90;;;;;;4281988;27;20043;-65
2023/10/26 06:58:03;;;;;;;18.83;3.60;;;14.00;99.90;;;;;;4282096;27;20053;-65
2023/10/26 07:00:06;;;;;;;22.20;4.18;;;13.90;99.90;;;;;;4281869;27;20046;-64
2023/10/26 07:02:10;;;;;;;13.23;3.03;;;13.90;99.90;;;;;;4281577;27;20053;-65
2023/10/26 07:04:13;;;;;;;21.92;3.65;;;14.00;99.90;;;;;;4281433;27;20042;-65
2023/10/26 07:06:17;;;;;;;15.00;3.08;;;13.90;99.90;;;;;;4281858;27;20050;-65
2023/10/26 07:08:19;;;;;;;18.40;3.92;;;14.00;99.90;;;;;;4281763;27;20046;-64
2023/10/26 07:10:21;;;;;;;20.75;4.10;;;13.90;99.90;;;;;;4282076;27;20559;-65
2023/10/26 07:12:24;;;;;;;19.50;4.15;;;13.90;99.90;;;;;;4281813;27;20073;-65
2023/10/26 07:14:27;;;;;;;15.73;3.45;;;13.90;99.90;;;;;;4281533;27;20042;-65
2023/10/26 07:16:29;;;;;;;19.08;4.10;;;14.00;99.90;;;;;;4281351;27;20471;-65
2023/10/26 07:18:32;;;;;;;18.10;3.60;;;14.00;99.90;;;;;;4262739;27;20050;-64
2023/10/26 07:20:39;;;;;;;22.30;4.32;;;14.00;99.90;;;;;;4281563;27;20066;-65
2023/10/26 07:22:42;;;;;;;25.15;4.70;;;14.00;99.90;;;;;;4281351;27;20043;-64
2023/10/26 07:24:44;;;;;;;26.17;5.28;;;14.00;99.90;;;;;;4281368;27;20045;-64
2023/10/26 07:26:49;;;;;;;16.90;3.65;;;14.00;99.90;;;;;;4281616;27;20042;-64
2023/10/26 07:28:52;;;;;;;19.60;4.00;;;14.00;99.90;;;;;;4281560;27;20049;-65
2023/10/26 07:30:54;;;;;;;35.17;5.88;;;14.00;99.90;;;;;;4263024;27;20125;-65
2023/10/26 07:32:56;;;;;;;18.17;4.05;;;14.00;99.90;;;;;;4281264;27;20125;-65
2023/10/26 07:35:01;;;;;;;23.27;4.57;;;14.10;99.90;;;;;;4262971;27;20528;-65
2023/10/26 07:37:03;;;;;;;24.55;4.82;;;14.10;99.90;;;;;;4263083;27;20038;-67
2023/10/26 07:39:10;;;;;;;23.00;4.93;;;14.00;99.90;;;;;;4281812;27;20050;-64
2023/10/26 07:41:32;;;;;;;28.45;6.10;;;14.00;99.90;;;;;;4281366;27;20103;-66
2023/10/26 07:43:54;;;;;;;21.70;4.95;;;14.00;99.90;;;;;;4281307;27;20053;-65
2023/10/26 07:45:57;;;;;;;21.45;4.30;;;14.10;99.90;;;;;;4283212;27;20053;-66
2023/10/26 07:47:59;;;;;;;20.90;5.75;;;14.10;99.90;;;;;;4285136;27;20125;-69
2023/10/26 07:50:03;;;;;;;17.73;3.70;;;14.10;99.90;;;;;;4284747;27;20042;-66
2023/10/26 07:52:06;;;;;;;19.42;3.72;;;14.10;99.90;;;;;;4265613;27;20115;-66
2023/10/26 07:54:09;;;;;;;21.20;5.05;;;14.10;99.90;;;;;;4262880;27;20427;-66
2023/10/26 07:56:11;;;;;;;21.10;5.32;;;14.20;99.90;;;;;;4258430;27;20092;-65
2023/10/26 07:58:13;;;;;;;23.83;5.50;;;14.20;99.90;;;;;;4265903;27;20078;-65
2023/10/26 08:00:16;;;;;;;28.13;5.95;;;14.20;99.90;;;;;;4254454;27;20094;-67
2023/10/26 08:02:18;;;;;;;22.10;4.93;;;14.20;99.90;;;;;;4266985;27;20046;-66
2023/10/26 08:04:21;;;;;;;21.13;4.70;;;14.20;99.90;;;;;;4263967;27;20065;-66
2023/10/26 08:06:23;;;;;;;27.08;5.10;;;14.30;99.90;;;;;;4257369;27;20126;-66
2023/10/26 08:08:25;;;;;;;27.45;5.55;;;14.30;99.90;;;;;;4267353;27;20552;-66
2023/10/26 08:10:32;;;;;;;21.92;5.85;;;14.30;99.90;;;;;;4242943;27;20127;-67
2023/10/26 08:12:34;;;;;;;22.75;5.13;;;14.30;99.90;;;;;;4250713;27;20051;-58
2023/10/26 08:14:36;;;;;;;27.80;5.38;;;14.30;99.90;;;;;;4251558;27;20039;-58
2023/10/26 08:16:59;;;;;;;27.95;5.22;;;14.30;99.90;;;;;;4257588;27;20047;-59
2023/10/26 08:19:01;;;;;;;24.52;5.72;;;14.30;99.90;;;;;;4266878;27;20057;-59
2023/10/26 08:21:05;;;;;;;33.17;6.18;;;14.30;99.90;;;;;;4262773;27;20050;-64
2023/10/26 08:23:07;;;;;;;22.83;5.80;;;14.40;99.90;;;;;;4250223;27;20059;-58
2023/10/26 08:25:09;;;;;;;19.55;5.20;;;14.30;99.90;;;;;;4255138;27;20043;-58
2023/10/26 08:27:13;;;;;;;28.98;4.53;;;14.30;99.90;;;;;;4258049;27;20043;-58
2023/10/26 08:29:15;;;;;;;19.67;4.47;;;14.30;99.90;;;;;;4266639;27;20049;-58
2023/10/26 08:31:34;;;;;;;28.70;6.45;;;14.30;99.90;;;;;;4254479;27;20054;-59
2023/10/26 08:33:36;;;;;;;26.83;4.93;;;14.30;99.90;;;;;;4267128;27;20046;-60
2023/10/26 08:35:40;;;;;;;21.17;4.95;;;14.40;99.90;;;;;;4243013;27;20130;-60
2023/10/26 08:37:43;;;;;;;19.80;4.80;;;14.40;99.90;;;;;;4259589;27;20043;-58
2023/10/26 08:39:45;;;;;;;28.85;6.18;;;14.40;99.90;;;;;;4266484;27;20393;-58
2023/10/26 08:41:52;;;;;;;23.90;6.00;;;14.40;99.90;;;;;;4262256;27;20058;-60
2023/10/26 08:43:56;;;;;;;29.48;6.50;;;14.50;99.90;;;;;;4249374;27;20054;-57
2023/10/26 08:46:00;;;;;;;28.52;5.63;;;14.40;99.90;;;;;;4254266;27;20115;-58
2023/10/26 08:48:04;;;;;;;27.57;6.00;;;14.40;99.90;;;;;;4256752;27;20088;-58
2023/10/26 08:50:07;;;;;;;22.75;5.68;;;14.40;99.90;;;;;;4249455;27;20035;-57
2023/10/26 08:52:16;;;;;;;21.77;5.15;;;14.50;99.90;;;;;;4243199;27;20043;-58
2023/10/26 08:54:18;;;;;;;19.85;5.10;;;14.50;99.90;;;;;;4249536;27;20063;-58
2023/10/26 08:56:23;;;;;;;26.80;5.05;;;14.50;99.90;;;;;;4253594;27;20119;-58
2023/10/26 08:58:25;;;;;;;23.23;5.55;;;14.50;99.90;;;;;;4255408;27;20526;-58
2023/10/26 09:00:30;;;;;;;24.73;5.07;;;14.50;99.90;;;;;;4249496;27;20157;-57
2023/10/26 09:02:32;;;;;;;24.20;5.10;;;14.50;99.90;;;;;;4261634;27;20054;-58
2023/10/26 09:04:35;;;;;;;17.33;5.43;;;14.50;99.90;;;;;;4249935;27;20087;-65
2023/10/26 09:06:44;;;;;;;23.23;5.00;;;14.50;99.90;;;;;;4253635;27;20073;-59
2023/10/26 09:08:59;;;;;;;19.70;4.47;;;14.50;99.90;;;;;;4255889;27;20047;-58
2023/10/26 09:11:21;;;;;;;19.88;4.30;;;14.60;99.90;;;;;;4250452;27;20481;-57
2023/10/26 09:13:25;;;;;;;23.48;5.07;;;14.60;99.90;;;;;;4260296;27;20096;-58
2023/10/26 09:15:28;;;;;;;24.67;4.97;;;14.60;99.90;;;;;;4249034;27;20154;-57
2023/10/26 09:17:33;;;;;;;29.13;5.40;;;14.60;99.90;;;;;;4257915;27;20050;-57
2023/10/26 09:19:38;;;;;;;21.25;4.43;;;14.60;99.90;;;;;;4266313;27;20104;-57
2023/10/26 09:21:52;;;;;;;21.83;4.60;;;14.60;99.90;;;;;;4246247;27;20149;-58
2023/10/26 09:23:54;;;;;;;19.55;5.00;;;14.60;99.90;;;;;;4255954;27;20038;-58
2023/10/26 09:25:57;;;;;;;21.10;4.85;;;14.60;99.90;;;;;;4266743;27;20057;-57
2023/10/26 09:28:02;;;;;;;23.98;5.03;;;14.70;99.90;;;;;;4251228;27;20046;-58
2023/10/26 09:30:06;;;;;;;21.60;4.95;;;14.70;99.90;;;;;;4249053;27;20047;-59
2023/10/26 09:32:09;;;;;;;24.05;5.40;;;14.70;99.90;;;;;;4251679;27;20122;-59
2023/10/26 09:34:12;;;;;;;33.10;6.00;;;14.70;99.90;;;;;;4261285;27;20039;-60
2023/10/26 09:36:16;;;;;;;22.67;6.07;;;14.70;99.90;;;;;;4250665;27;20063;-60
2023/10/26 09:38:33;;;;;;;28.07;6.23;;;14.80;99.90;;;;;;4259717;27;20107;-58
2023/10/26 09:40:36;;;;;;;24.30;5.10;;;14.80;99.90;;;;;;4249463;27;20051;-63
2023/10/26 09:42:39;;;;;;;23.73;4.95;;;14.70;99.90;;;;;;4252098;27;20421;-59
2023/10/26 09:44:41;;;;;;;23.13;4.63;;;14.80;99.90;;;;;;4258897;27;20043;-63
2023/10/26 09:46:44;;;;;;;24.40;5.13;;;14.80;99.90;;;;;;4263305;27;20070;-58
2023/10/26 09:48:46;;;;;;;27.85;5.50;;;14.80;99.90;;;;;;4254104;27;20070;-58
2023/10/26 09:50:51;;;;;;;23.27;5.90;;;14.90;99.90;;;;;;4264460;27;20547;-58
2023/10/26 09:52:55;;;;;;;18.38;4.45;;;14.90;99.90;;;;;;4262845;27;20049;-58
2023/10/26 09:54:58;;;;;;;22.50;5.35;;;14.90;99.90;;;;;;4255015;27;20038;-58
2023/10/26 09:57:07;;;;;;;30.98;5.47;;;14.90;99.90;;;;;;4264958;27;20053;-58
2023/10/26 09:59:10;;;;;;;28.48;5.80;;;15.00;99.90;;;;;;4253519;27;20058;-58
2023/10/26 10:01:32;;;;;;;28.80;6.35;;;15.10;99.90;;;;;;4264365;27;20118;-58
2023/10/26 10:03:43;;;;;;;25.90;4.63;;;15.10;99.90;;;;;;4259820;27;20039;-60
2023/10/26 10:05:47;;;;;;;24.13;5.22;;;15.20;99.90;;;;;;4259897;27;20142;-60
2023/10/26 10:07:51;;;;;;;21.27;5.43;;;15.20;99.90;;;;;;4263501;27;20061;-58
2023/10/26 10:10:05;;;;;;;28.45;5.30;;;15.30;99.90;;;;;;4253638;27;20065;-58
2023/10/26 10:12:33;;;;;;;22.05;4.35;;;15.30;99.90;;;;;;4265357;27;20409;-58
2023/10/26 10:14:54;;;;;;;23.95;4.68;;;15.40;99.90;;;;;;4254014;27;20039;-58
2023/10/26 10:17:06;;;;;;;19.85;4.70;;;15.40;99.90;;;;;;4249169;27;20542;-59
2023/10/26 10:19:19;;;;;;;23.10;4.80;;;15.40;99.90;;;;;;4260696;27;20061;-58
2023/10/26 10:21:34;;;;;;;24.75;4.88;;;15.30;99.90;;;;;;4253739;27;20134;-59
2023/10/26 10:23:38;;;;;;;26.23;4.90;;;15.40;99.90;;;;;;4250686;27;20100;-63
2023/10/26 10:26:00;;;;;;;21.92;4.45;;;15.50;99.90;;;;;;4253637;27;20385;-58
2023/10/26 10:28:12;;;;;;;22.10;5.22;;;15.50;99.90;;;;;;4265331;27;20042;-62
2023/10/26 10:30:18;;;;;;;18.55;4.78;;;15.50;99.90;;;;;;4252936;27;20046;-58
2023/10/26 10:32:50;;;;;;;20.27;4.75;;;15.50;99.90;;;;;;4255956;27;20512;-58
2023/10/26 10:34:58;;;;;;;25.95;5.28;;;15.60;99.90;;;;;;4252361;27;20043;-60
2023/10/26 10:37:11;;;;;;;27.63;5.65;;;15.60;99.90;;;;;;4261025;27;20400;-64
2023/10/26 10:39:22;;;;;;;26.33;4.97;;;15.60;99.90;;;;;;4263221;27;20046;-59
2023/10/26 10:41:24;;;;;;;19.88;4.47;;;15.70;99.90;;;;;;4254036;27;20098;-58
2023/10/26 10:43:30;;;;;;;22.08;4.13;;;15.60;99.90;;;;;;4264264;27;20050;-57